Wuzhou, China
Current Conditions -  °F | °C
As of 10:00 PM on Tuesday 27 Jan 2015 (Local Time) from ZGGG Reporting Station
Haze Haze  
Wind Chill: 63°   Ceiling: Unl
Heat Index: 63°   Visibility: 2.1mi
Dew Point: 59°   Wind: 4mph
Humidity: 88%   Direction: 150°SSE
Pressure: 30"   Gusts: NA
Location:  23.48°N, 111.32°E
Report Text: ZGGG 271400Z 15002MPS 3500 BR NSC 17/15 Q1016 NOSIG
Loading
Personal Weather Stations






























Interactive Weather Map New forecast layout! Learn more

10-Day Weather Forecast

Advertisements
Track Severe Weather on mobile